Time;durP1;ratioP1;P1;durP2;ratioP2;P2;SDS_P1;SDS_P2;PMS_P1;PMS_P2;Temp;Humidity;BMP_temperature;BMP_pressure;BME280_temperature;BME280_humidity;BME280_pressure;Samples;Min_cycle;Max_cycle;Signal;HPM_P1;HPM_P2
2021/12/18 00:00:21;;;;;;;9.33;8.83;;;7.40;80.00;;;;;;5008757;28;20037;-80
2021/12/18 00:02:47;;;;;;;9.43;8.93;;;7.40;80.10;;;;;;4995288;28;20052;-79
2021/12/18 00:05:13;;;;;;;8.43;8.02;;;7.40;80.10;;;;;;4996381;28;20075;-80
2021/12/18 00:07:39;;;;;;;8.20;7.80;;;7.30;80.00;;;;;;5005972;28;20021;-80
2021/12/18 00:10:06;;;;;;;8.75;8.15;;;7.30;80.10;;;;;;4995372;28;20384;-79
2021/12/18 00:12:32;;;;;;;8.77;8.35;;;7.30;80.20;;;;;;5005854;28;20476;-80
2021/12/18 00:14:58;;;;;;;8.50;8.10;;;7.30;80.20;;;;;;5004560;28;20031;-79
2021/12/18 00:17:24;;;;;;;8.60;8.13;;;7.20;80.20;;;;;;5040819;28;20030;-79
2021/12/18 00:19:50;;;;;;;8.40;8.00;;;7.20;80.30;;;;;;5001955;28;20045;-79
2021/12/18 00:22:16;;;;;;;8.93;8.43;;;7.20;80.30;;;;;;5004319;28;20030;-80
2021/12/18 00:24:42;;;;;;;8.77;8.27;;;7.20;80.30;;;;;;5008056;28;20053;-80
2021/12/18 00:27:09;;;;;;;8.40;8.00;;;7.20;80.40;;;;;;4994465;28;20065;-79
2021/12/18 00:29:35;;;;;;;8.70;7.97;;;7.10;80.30;;;;;;5005694;28;20060;-79
2021/12/18 00:32:01;;;;;;;8.23;7.77;;;7.10;80.40;;;;;;4984827;28;20030;-80
2021/12/18 00:34:27;;;;;;;7.67;7.27;;;7.10;80.50;;;;;;5004104;28;20403;-79
2021/12/18 00:36:53;;;;;;;7.73;7.33;;;7.10;80.50;;;;;;5001322;28;20046;-80
2021/12/18 00:39:19;;;;;;;8.90;8.37;;;7.00;80.40;;;;;;5005500;28;20037;-79
2021/12/18 00:44:13;;;;;;;9.00;8.40;;;7.00;80.50;;;;;;5016509;28;20045;-79
2021/12/18 00:46:41;;;;;;;11.03;9.33;;;7.00;80.60;;;;;;5000619;28;20400;-79
2021/12/18 00:49:07;;;;;;;8.40;7.70;;;7.00;80.60;;;;;;4992787;28;20033;-79
2021/12/18 00:51:34;;;;;;;9.97;8.93;;;7.00;80.60;;;;;;5003570;28;20398;-79
2021/12/18 00:54:00;;;;;;;8.00;7.60;;;7.00;80.60;;;;;;4996161;28;20030;-79
2021/12/18 00:56:26;;;;;;;8.23;7.83;;;7.00;80.50;;;;;;4991989;28;20034;-79
2021/12/18 00:58:52;;;;;;;9.57;8.70;;;7.00;80.60;;;;;;5006359;28;20038;-79
2021/12/18 01:01:20;;;;;;;7.63;7.23;;;6.90;80.50;;;;;;4998987;28;20038;-79
2021/12/18 01:03:48;;;;;;;8.30;7.90;;;6.90;80.50;;;;;;5008567;28;20034;-79
2021/12/18 01:06:15;;;;;;;8.50;8.10;;;6.90;80.50;;;;;;4994453;28;20050;-79
2021/12/18 01:08:41;;;;;;;8.60;7.90;;;6.90;80.60;;;;;;4997659;28;20034;-80
2021/12/18 01:11:32;;;;;;;9.33;8.83;;;6.90;80.60;;;;;;5005962;28;20049;-79
2021/12/18 01:16:39;;;;;;;8.23;7.82;;;6.90;80.60;;;;;;4997540;28;20626;-79
2021/12/18 01:24:31;;;;;;;9.00;8.60;;;6.90;80.60;;;;;;5011888;28;20061;-79
2021/12/18 01:26:57;;;;;;;8.87;8.40;;;6.80;80.50;;;;;;5008474;28;20097;-79
2021/12/18 01:29:24;;;;;;;9.97;9.47;;;6.80;80.50;;;;;;5001099;28;20391;-79
2021/12/18 01:31:50;;;;;;;8.20;7.80;;;6.80;80.60;;;;;;4985550;28;20037;-79
2021/12/18 01:34:16;;;;;;;9.63;9.03;;;6.80;80.60;;;;;;5005305;28;20495;-79
2021/12/18 01:36:43;;;;;;;9.07;8.67;;;6.80;80.60;;;;;;4992375;28;20034;-79
2021/12/18 01:39:09;;;;;;;9.40;8.90;;;6.70;80.60;;;;;;5008179;28;20491;-79
2021/12/18 01:41:52;;;;;;;10.37;9.77;;;6.70;80.60;;;;;;5008759;28;20026;-79
2021/12/18 01:47:03;;;;;;;9.90;9.40;;;6.70;81.50;;;;;;5007865;28;20053;-79
2021/12/18 01:52:20;;;;;;;11.37;10.67;;;6.70;80.70;;;;;;5010407;28;20041;-79
2021/12/18 01:54:46;;;;;;;10.80;10.05;;;6.70;80.60;;;;;;5008615;28;20041;-79
2021/12/18 01:57:12;;;;;;;13.93;8.20;;;6.70;80.60;;;;;;5001107;28;20037;-79
2021/12/18 01:59:43;;;;;;;10.10;9.50;;;6.60;80.50;;;;;;4996312;28;20041;-79
2021/12/18 02:02:09;;;;;;;10.88;10.27;;;6.60;80.60;;;;;;5027503;28;20049;-79
2021/12/18 02:04:35;;;;;;;11.43;10.53;;;6.60;80.70;;;;;;5008491;28;20049;-79
2021/12/18 02:07:02;;;;;;;10.50;9.90;;;6.60;80.70;;;;;;5003509;28;20516;-79
2021/12/18 02:09:41;;;;;;;10.80;10.20;;;6.60;80.70;;;;;;4977581;28;20399;-79
2021/12/18 02:12:08;;;;;;;10.18;9.63;;;6.60;80.70;;;;;;5001056;28;20042;-79
2021/12/18 02:20:22;;;;;;;10.43;9.93;;;6.50;80.70;;;;;;5011735;28;20045;-79
2021/12/18 02:22:48;;;;;;;10.10;9.50;;;6.50;80.70;;;;;;5002132;28;20031;-79
2021/12/18 02:25:14;;;;;;;11.17;10.60;;;6.40;80.70;;;;;;5012194;28;20053;-79
2021/12/18 02:27:40;;;;;;;10.53;10.00;;;6.40;80.70;;;;;;5009568;28;20037;-79
2021/12/18 02:30:08;;;;;;;9.83;9.33;;;6.40;80.80;;;;;;5011235;28;20037;-80
2021/12/18 02:32:34;;;;;;;9.57;9.10;;;6.40;80.80;;;;;;5027473;28;20039;-79
2021/12/18 02:35:04;;;;;;;9.47;9.07;;;6.40;80.80;;;;;;5010121;28;20045;-79
2021/12/18 02:37:38;;;;;;;9.95;9.35;;;6.30;81.60;;;;;;4996412;28;20369;-79
2021/12/18 02:42:34;;;;;;;11.27;10.67;;;6.30;80.80;;;;;;5013387;28;20048;-79
2021/12/18 02:45:01;;;;;;;11.27;10.57;;;6.30;80.90;;;;;;5011296;28;20038;-79
2021/12/18 02:47:27;;;;;;;9.90;9.40;;;6.30;80.90;;;;;;5009536;28;20034;-79
2021/12/18 02:49:53;;;;;;;10.17;9.57;;;6.20;80.90;;;;;;5009052;28;20037;-79
2021/12/18 02:52:20;;;;;;;11.53;10.93;;;6.20;80.90;;;;;;5008354;28;20041;-79
2021/12/18 02:54:46;;;;;;;10.23;9.73;;;6.20;80.90;;;;;;5009064;28;20026;-79
2021/12/18 02:57:12;;;;;;;11.93;11.03;;;6.20;80.90;;;;;;5009663;28;20033;-79
2021/12/18 02:59:51;;;;;;;10.47;9.97;;;6.20;81.00;;;;;;4993778;28;20407;-79
2021/12/18 03:02:18;;;;;;;9.40;9.00;;;6.20;81.00;;;;;;4996426;28;20046;-79
2021/12/18 03:04:49;;;;;;;10.80;10.30;;;6.20;81.10;;;;;;5008323;28;20041;-79
2021/12/18 03:07:17;;;;;;;10.45;9.95;;;6.10;81.00;;;;;;4988568;28;20044;-79
2021/12/18 03:23:17;;;;;;;9.07;8.67;;;6.10;81.00;;;;;;5004129;28;20041;-79
2021/12/18 03:25:44;;;;;;;10.07;9.57;;;6.10;81.00;;;;;;5006727;28;20517;-79
2021/12/18 03:28:10;;;;;;;9.97;9.47;;;6.10;81.20;;;;;;5009295;28;20045;-79
2021/12/18 03:30:37;;;;;;;9.93;9.43;;;6.10;81.20;;;;;;5009518;28;20037;-79
2021/12/18 03:33:03;;;;;;;9.97;9.47;;;6.00;81.20;;;;;;4993325;28;20050;-79
2021/12/18 03:35:29;;;;;;;9.73;9.23;;;6.00;81.30;;;;;;5006437;28;20030;-80
2021/12/18 03:37:55;;;;;;;9.70;9.30;;;6.00;81.30;;;;;;4990532;28;20034;-78
2021/12/18 03:40:23;;;;;;;10.00;9.50;;;6.00;81.40;;;;;;5008298;28;20042;-79
2021/12/18 03:42:49;;;;;;;9.50;8.83;;;5.90;81.40;;;;;;5008294;28;20386;-80
2021/12/18 03:45:16;;;;;;;10.43;9.93;;;5.90;81.50;;;;;;5007183;28;20041;-81
2021/12/18 03:47:42;;;;;;;8.70;8.30;;;5.90;81.60;;;;;;5043172;28;20501;-80
2021/12/18 03:50:08;;;;;;;9.10;8.63;;;5.90;81.70;;;;;;5009166;28;20029;-80
2021/12/18 03:52:34;;;;;;;8.63;8.10;;;5.90;81.70;;;;;;5003858;28;20037;-79
2021/12/18 03:55:01;;;;;;;9.53;8.93;;;5.90;81.70;;;;;;4994244;28;20033;-80
2021/12/18 03:57:27;;;;;;;8.60;8.20;;;5.90;81.70;;;;;;5008207;28;20018;-80
2021/12/18 03:59:54;;;;;;;9.13;8.63;;;5.90;81.70;;;;;;5011412;28;20030;-80
2021/12/18 04:02:20;;;;;;;9.67;9.17;;;5.80;81.70;;;;;;5008981;28;20030;-81
2021/12/18 04:04:46;;;;;;;9.77;9.27;;;5.90;81.70;;;;;;5016470;28;20049;-82
2021/12/18 04:07:14;;;;;;;8.50;8.10;;;5.90;81.70;;;;;;5007524;28;20034;-82
2021/12/18 04:09:40;;;;;;;9.57;9.13;;;5.80;81.70;;;;;;5010399;28;20388;-82
2021/12/18 04:12:06;;;;;;;9.30;8.67;;;5.80;81.80;;;;;;5008028;28;20034;-81
2021/12/18 04:14:33;;;;;;;9.33;8.83;;;5.80;81.90;;;;;;5011226;28;20046;-80
2021/12/18 04:16:59;;;;;;;9.67;9.17;;;5.80;82.00;;;;;;5012319;28;20041;-81
2021/12/18 04:19:25;;;;;;;10.33;9.83;;;5.80;82.00;;;;;;5009266;28;20029;-80
2021/12/18 04:21:51;;;;;;;9.00;8.57;;;5.80;82.10;;;;;;5010650;28;20471;-80
2021/12/18 04:24:17;;;;;;;9.23;8.83;;;5.70;82.00;;;;;;5009605;28;20030;-81
2021/12/18 04:26:43;;;;;;;8.90;8.30;;;5.70;82.70;;;;;;5009669;28;20044;-81
2021/12/18 04:29:09;;;;;;;9.87;8.93;;;5.80;82.00;;;;;;4994525;28;20395;-81
2021/12/18 04:31:36;;;;;;;7.63;7.27;;;5.70;82.00;;;;;;5009193;28;20045;-81
2021/12/18 04:34:02;;;;;;;8.47;8.07;;;5.70;82.00;;;;;;5009397;28;20034;-81
2021/12/18 04:36:29;;;;;;;8.73;8.10;;;5.70;82.10;;;;;;4991010;28;20037;-81
2021/12/18 04:38:55;;;;;;;8.57;8.17;;;5.70;82.10;;;;;;4991297;28;20046;-81
2021/12/18 04:41:24;;;;;;;9.77;9.27;;;5.70;82.10;;;;;;5011171;28;20460;-81
2021/12/18 04:43:50;;;;;;;7.87;7.47;;;5.60;82.10;;;;;;5005421;28;20026;-81
2021/12/18 04:46:16;;;;;;;7.67;7.17;;;5.60;82.20;;;;;;5003825;28;20045;-81
2021/12/18 04:48:43;;;;;;;6.70;6.40;;;5.60;82.20;;;;;;5010377;28;20033;-81
2021/12/18 04:51:09;;;;;;;8.30;7.80;;;5.60;82.20;;;;;;5009179;28;20034;-80
2021/12/18 04:53:35;;;;;;;8.50;8.10;;;5.60;82.30;;;;;;5009919;28;20375;-80
2021/12/18 04:56:02;;;;;;;7.93;7.23;;;5.60;82.30;;;;;;4993002;28;20040;-80
2021/12/18 04:58:28;;;;;;;7.57;7.20;;;5.60;82.20;;;;;;5009147;28;20475;-80
2021/12/18 05:00:55;;;;;;;7.30;7.00;;;5.60;82.20;;;;;;5008838;28;20045;-80
2021/12/18 05:03:21;;;;;;;7.87;7.43;;;5.60;82.20;;;;;;5010139;28;20034;-83
2021/12/18 05:05:47;;;;;;;8.60;8.20;;;5.60;82.20;;;;;;4991618;28;20061;-83
2021/12/18 05:08:13;;;;;;;9.80;9.27;;;5.60;82.20;;;;;;4993408;28;20038;-82
2021/12/18 05:10:39;;;;;;;8.70;8.07;;;5.50;82.20;;;;;;5009312;28;20044;-83
2021/12/18 05:13:05;;;;;;;11.40;10.87;;;5.50;82.20;;;;;;5008924;28;20030;-80
2021/12/18 05:15:32;;;;;;;16.17;15.37;;;5.50;82.20;;;;;;5008280;28;20383;-80
2021/12/18 05:17:58;;;;;;;8.63;8.17;;;5.50;82.20;;;;;;4992544;28;20395;-80
2021/12/18 05:20:24;;;;;;;8.27;7.57;;;5.50;82.20;;;;;;5011455;28;20026;-80
2021/12/18 05:22:50;;;;;;;7.57;7.23;;;5.50;82.20;;;;;;4993466;28;20029;-80
2021/12/18 05:25:16;;;;;;;7.30;7.00;;;5.50;82.10;;;;;;5013036;28;20041;-81
2021/12/18 05:27:42;;;;;;;7.20;6.90;;;5.50;82.20;;;;;;4994454;28;20038;-81
2021/12/18 05:30:09;;;;;;;19.20;18.17;;;5.50;82.20;;;;;;4994474;28;20071;-81
2021/12/18 05:32:35;;;;;;;18.70;17.80;;;5.40;82.90;;;;;;5013105;28;20042;-81
2021/12/18 05:35:02;;;;;;;8.73;8.33;;;5.40;82.20;;;;;;5013753;28;20471;-81
2021/12/18 05:37:49;;;;;;;7.70;7.23;;;5.40;82.20;;;;;;5012836;28;20089;-80
2021/12/18 05:40:22;;;;;;;13.07;12.47;;;5.40;82.20;;;;;;5012908;28;20025;-81
2021/12/18 05:42:49;;;;;;;15.37;14.63;;;5.30;82.20;;;;;;5012593;28;20026;-80
2021/12/18 05:45:15;;;;;;;7.20;6.90;;;5.40;82.30;;;;;;5012004;28;20208;-81
2021/12/18 05:47:43;;;;;;;7.47;7.17;;;5.30;82.30;;;;;;5011992;28;20029;-81
2021/12/18 05:50:10;;;;;;;7.60;7.10;;;5.30;82.30;;;;;;5014114;28;20033;-81
2021/12/18 05:52:36;;;;;;;9.13;8.60;;;5.30;82.40;;;;;;5012525;28;20040;-81
2021/12/18 05:55:03;;;;;;;7.03;6.73;;;5.30;82.40;;;;;;5013311;28;20034;-81
2021/12/18 05:57:29;;;;;;;7.50;7.13;;;5.30;82.40;;;;;;5011026;28;20042;-80
2021/12/18 05:59:55;;;;;;;7.93;7.53;;;5.20;82.40;;;;;;5011902;28;20040;-81
2021/12/18 06:02:21;;;;;;;7.50;7.17;;;5.20;83.20;;;;;;5014325;28;20037;-80
2021/12/18 06:04:47;;;;;;;8.80;8.30;;;5.20;82.40;;;;;;5011046;28;20038;-80
2021/12/18 06:07:28;;;;;;;8.43;7.97;;;5.20;82.40;;;;;;5012233;28;20415;-80
2021/12/18 06:09:54;;;;;;;8.30;7.80;;;5.20;82.40;;;;;;5012479;28;20033;-81
2021/12/18 06:12:20;;;;;;;6.50;6.20;;;5.20;82.40;;;;;;4995273;28;20065;-83
2021/12/18 06:14:47;;;;;;;7.70;7.20;;;5.20;82.40;;;;;;5012453;28;20395;-81
2021/12/18 06:17:13;;;;;;;8.97;8.17;;;5.30;82.70;;;;;;4974169;28;20094;-81
2021/12/18 06:19:39;;;;;;;7.67;7.17;;;5.40;82.40;;;;;;4990674;28;20049;-81
2021/12/18 06:22:05;;;;;;;8.33;7.63;;;5.40;82.20;;;;;;4996964;28;20038;-81
2021/12/18 06:24:31;;;;;;;9.93;9.07;;;5.30;82.10;;;;;;5011795;28;20045;-81
2021/12/18 06:26:57;;;;;;;8.30;7.87;;;5.30;82.20;;;;;;5012091;28;20046;-81
2021/12/18 06:29:23;;;;;;;9.27;8.67;;;5.20;82.20;;;;;;5013115;28;20057;-81
2021/12/18 06:31:49;;;;;;;9.30;8.70;;;5.20;82.40;;;;;;5012748;28;20046;-81
2021/12/18 06:34:16;;;;;;;8.03;7.63;;;5.10;82.30;;;;;;4989666;28;20049;-81
2021/12/18 06:36:42;;;;;;;9.07;8.67;;;5.10;82.30;;;;;;5001132;28;21442;-81
2021/12/18 06:39:08;;;;;;;7.33;6.97;;;5.10;82.30;;;;;;4992944;28;20043;-81
2021/12/18 06:41:34;;;;;;;7.53;7.13;;;5.10;82.30;;;;;;5011567;28;20026;-81
2021/12/18 06:44:00;;;;;;;7.63;7.20;;;5.10;82.40;;;;;;5014416;28;20037;-81
2021/12/18 06:46:26;;;;;;;7.50;7.10;;;5.10;82.40;;;;;;5010517;28;20049;-81
2021/12/18 06:48:52;;;;;;;7.77;7.37;;;5.10;82.40;;;;;;4989883;28;20411;-81
2021/12/18 06:51:19;;;;;;;7.00;6.70;;;5.00;82.40;;;;;;4998533;28;20034;-81
2021/12/18 06:53:46;;;;;;;8.33;7.77;;;5.10;82.40;;;;;;5011285;28;20056;-81
2021/12/18 06:56:12;;;;;;;9.53;8.83;;;5.00;82.30;;;;;;4996879;28;20389;-81
2021/12/18 06:58:38;;;;;;;7.63;7.13;;;5.10;82.30;;;;;;5011427;28;20034;-81
2021/12/18 07:01:04;;;;;;;8.00;7.60;;;5.00;82.30;;;;;;5010454;28;20034;-81
2021/12/18 07:03:31;;;;;;;7.87;7.37;;;5.00;82.30;;;;;;5011251;28;20034;-81
2021/12/18 07:05:57;;;;;;;7.47;7.07;;;5.00;82.30;;;;;;4994560;28;20045;-81
2021/12/18 07:08:23;;;;;;;7.90;7.43;;;5.00;82.30;;;;;;5013782;28;20064;-81
2021/12/18 07:10:49;;;;;;;7.73;7.13;;;5.00;82.30;;;;;;5012596;28;20391;-81
2021/12/18 07:13:16;;;;;;;9.40;8.70;;;5.00;82.30;;;;;;5010861;28;20042;-81
2021/12/18 07:15:42;;;;;;;7.07;6.77;;;5.00;82.40;;;;;;4987129;28;20030;-81
2021/12/18 07:18:08;;;;;;;7.30;6.80;;;4.90;82.30;;;;;;5010705;28;20026;-81
2021/12/18 07:20:34;;;;;;;7.80;7.30;;;5.00;82.50;;;;;;4994888;28;20053;-81
2021/12/18 07:23:00;;;;;;;7.00;6.70;;;5.00;82.30;;;;;;4991066;28;20033;-80
2021/12/18 07:25:27;;;;;;;8.23;7.80;;;5.00;82.30;;;;;;5009556;28;20466;-80
2021/12/18 07:27:54;;;;;;;17.73;7.67;;;5.00;82.30;;;;;;5010568;28;20038;-80
2021/12/18 07:30:20;;;;;;;7.20;6.90;;;5.00;82.30;;;;;;5010041;28;20033;-80
2021/12/18 07:32:47;;;;;;;8.30;7.90;;;5.00;82.30;;;;;;5010545;28;20061;-81
2021/12/18 07:35:13;;;;;;;9.10;8.40;;;5.00;82.30;;;;;;4976936;28;20050;-81
2021/12/18 07:37:39;;;;;;;7.00;6.70;;;5.00;82.30;;;;;;5007412;28;20026;-80
2021/12/18 07:40:06;;;;;;;8.70;8.10;;;5.00;82.30;;;;;;5000037;28;20266;-80
2021/12/18 07:42:32;;;;;;;7.63;7.23;;;5.00;82.30;;;;;;4999140;28;20040;-81
2021/12/18 07:44:59;;;;;;;7.63;7.03;;;5.00;82.30;;;;;;5011121;28;20029;-79
2021/12/18 07:47:26;;;;;;;9.83;8.60;;;5.00;82.30;;;;;;5011075;28;20064;-79
2021/12/18 07:49:52;;;;;;;8.03;7.63;;;5.00;82.30;;;;;;5007568;28;20034;-86
2021/12/18 07:52:18;;;;;;;7.63;7.23;;;5.00;82.30;;;;;;5004857;28;20030;-80
2021/12/18 07:54:44;;;;;;;10.47;9.80;;;4.90;82.20;;;;;;4992282;28;20041;-81
2021/12/18 07:57:18;;;;;;;7.13;6.73;;;4.90;82.20;;;;;;5011366;28;20038;-81
2021/12/18 07:59:44;;;;;;;7.53;7.13;;;4.90;82.20;;;;;;5009932;28;20030;-80
2021/12/18 08:02:10;;;;;;;14.73;8.47;;;4.90;82.20;;;;;;4991829;28;20030;-80
2021/12/18 08:04:36;;;;;;;7.03;6.73;;;4.90;82.20;;;;;;4989651;28;20061;-80
2021/12/18 08:07:02;;;;;;;7.00;6.70;;;4.90;82.20;;;;;;4988643;28;20053;-82
2021/12/18 08:09:29;;;;;;;9.23;8.73;;;4.90;82.20;;;;;;4993589;28;20208;-80
2021/12/18 08:11:55;;;;;;;7.90;7.33;;;4.90;82.20;;;;;;4993851;28;20045;-80
2021/12/18 08:14:21;;;;;;;8.13;7.67;;;4.90;82.20;;;;;;5010713;28;20034;-80
2021/12/18 08:16:48;;;;;;;8.83;8.33;;;4.90;82.20;;;;;;4989766;28;20038;-79
2021/12/18 08:19:15;;;;;;;7.97;7.57;;;4.90;82.20;;;;;;4988571;28;20046;-81
2021/12/18 08:21:41;;;;;;;8.27;7.87;;;4.90;82.20;;;;;;4989707;28;20049;-80
2021/12/18 08:24:10;;;;;;;8.73;8.23;;;5.00;82.30;;;;;;4989237;28;20038;-82
2021/12/18 08:26:36;;;;;;;8.00;7.60;;;5.00;82.20;;;;;;4984187;28;20043;-80
2021/12/18 08:29:02;;;;;;;8.67;8.07;;;5.00;82.20;;;;;;4962372;28;20038;-80
2021/12/18 08:31:28;;;;;;;8.67;8.10;;;4.90;82.20;;;;;;4978172;28;20037;-82
2021/12/18 08:33:54;;;;;;;8.03;7.50;;;4.90;83.00;;;;;;5007289;28;20038;-80
2021/12/18 08:36:20;;;;;;;7.83;7.40;;;4.90;82.20;;;;;;5010865;28;20305;-81
2021/12/18 08:38:46;;;;;;;7.80;7.40;;;4.90;82.20;;;;;;5010774;28;20057;-79
2021/12/18 08:41:13;;;;;;;7.97;7.40;;;4.90;82.20;;;;;;5011646;28;20463;-77
2021/12/18 08:43:39;;;;;;;8.90;8.40;;;5.00;82.30;;;;;;4997064;28;20042;-79
2021/12/18 08:46:05;;;;;;;8.60;8.00;;;5.00;82.30;;;;;;5005906;28;20526;-78
2021/12/18 08:48:31;;;;;;;7.23;6.93;;;5.00;82.20;;;;;;5006812;28;20030;-79
2021/12/18 08:50:57;;;;;;;9.17;8.67;;;5.10;82.30;;;;;;5011016;28;20494;-79
2021/12/18 08:53:23;;;;;;;8.30;7.90;;;5.10;82.20;;;;;;5006804;28;20041;-79
2021/12/18 08:55:49;;;;;;;8.10;7.70;;;5.10;82.20;;;;;;5006104;28;20030;-80
2021/12/18 08:58:16;;;;;;;7.87;7.37;;;5.10;82.10;;;;;;5005591;28;20021;-80
2021/12/18 09:00:42;;;;;;;8.47;8.07;;;5.20;82.20;;;;;;5007013;28;20041;-79
2021/12/18 09:03:09;;;;;;;7.43;7.13;;;5.10;82.20;;;;;;5008403;28;20030;-81
2021/12/18 09:05:36;;;;;;;8.30;7.87;;;5.20;82.40;;;;;;5008007;28;20026;-79
2021/12/18 09:08:02;;;;;;;9.87;8.87;;;5.40;82.60;;;;;;5008600;28;20049;-78
2021/12/18 09:10:28;;;;;;;7.37;7.03;;;5.50;82.20;;;;;;4997581;28;20378;-79
2021/12/18 09:12:54;;;;;;;9.97;9.23;;;5.50;82.00;;;;;;5000769;28;20395;-81
2021/12/18 09:15:21;;;;;;;7.80;7.40;;;5.50;82.00;;;;;;5007164;28;20472;-81
2021/12/18 09:17:47;;;;;;;8.90;8.40;;;5.50;82.10;;;;;;5009319;28;20038;-79
2021/12/18 09:20:13;;;;;;;10.73;10.23;;;5.50;82.10;;;;;;5007880;28;20424;-81
2021/12/18 09:22:39;;;;;;;11.77;8.37;;;5.50;82.10;;;;;;5003035;28;20035;-80
2021/12/18 09:25:06;;;;;;;8.53;8.03;;;5.50;82.10;;;;;;5033341;28;20053;-79
2021/12/18 09:27:33;;;;;;;8.00;7.60;;;5.50;82.10;;;;;;4991441;28;20049;-80
2021/12/18 09:30:02;;;;;;;8.53;8.13;;;5.50;82.10;;;;;;4996150;28;20030;-81
2021/12/18 09:32:29;;;;;;;7.60;7.30;;;5.60;82.10;;;;;;4989033;28;20030;-81
2021/12/18 09:34:56;;;;;;;8.43;7.97;;;5.60;82.20;;;;;;4999805;28;20475;-79
2021/12/18 09:37:22;;;;;;;8.67;8.17;;;5.60;82.10;;;;;;5009193;28;20094;-81
2021/12/18 09:39:48;;;;;;;8.33;7.93;;;5.60;82.10;;;;;;4990353;28;20038;-80
2021/12/18 09:42:14;;;;;;;7.47;7.17;;;5.70;82.90;;;;;;4996350;28;20033;-80
2021/12/18 09:44:40;;;;;;;8.90;8.50;;;5.70;82.10;;;;;;5004264;28;20038;-80
2021/12/18 09:47:06;;;;;;;9.00;8.50;;;5.80;82.10;;;;;;4989281;28;20043;-79
2021/12/18 09:49:32;;;;;;;8.53;8.13;;;5.80;82.00;;;;;;5007368;28;20037;-79
2021/12/18 09:51:59;;;;;;;9.50;9.00;;;5.80;82.00;;;;;;5007881;28;20052;-79
2021/12/18 09:54:25;;;;;;;10.73;10.23;;;5.90;81.90;;;;;;5008666;28;20049;-79
2021/12/18 09:56:52;;;;;;;11.63;10.87;;;5.90;81.90;;;;;;4992346;28;20479;-80
2021/12/18 09:59:19;;;;;;;10.33;9.83;;;5.90;81.80;;;;;;4993705;28;20042;-80
2021/12/18 10:01:45;;;;;;;8.63;8.23;;;6.00;81.90;;;;;;5009509;28;20038;-79
2021/12/18 10:04:30;;;;;;;8.60;8.20;;;6.00;81.90;;;;;;5008718;28;20030;-79
2021/12/18 10:06:58;;;;;;;9.10;8.67;;;6.10;81.90;;;;;;5007121;28;20045;-79
2021/12/18 10:09:24;;;;;;;10.07;9.57;;;6.20;81.80;;;;;;5009312;28;20049;-79
2021/12/18 10:11:51;;;;;;;14.53;13.73;;;6.20;81.60;;;;;;5011234;28;20034;-79
2021/12/18 10:14:18;;;;;;;11.17;10.67;;;6.40;81.50;;;;;;5013464;28;20025;-78
2021/12/18 10:16:49;;;;;;;11.97;11.23;;;6.60;81.10;;;;;;5013172;28;20045;-78
2021/12/18 10:19:40;;;;;;;12.80;12.20;;;6.90;80.30;;;;;;5011193;28;21303;-78
2021/12/18 10:22:08;;;;;;;18.40;17.52;;;7.10;79.50;;;;;;5011193;28;20394;-77
2021/12/18 10:24:39;;;;;;;11.70;11.10;;;7.30;78.80;;;;;;5008334;28;20044;-79
2021/12/18 10:27:22;;;;;;;13.30;12.63;;;7.40;78.40;;;;;;4996329;28;20042;-79
2021/12/18 10:29:50;;;;;;;12.27;11.57;;;7.50;78.30;;;;;;4989013;28;20391;-79
2021/12/18 10:32:21;;;;;;;17.50;16.63;;;7.50;78.00;;;;;;5009711;28;20044;-80
2021/12/18 10:35:05;;;;;;;10.25;9.75;;;7.50;78.20;;;;;;4977958;28;20042;-79
2021/12/18 10:37:32;;;;;;;8.87;8.47;;;7.30;78.40;;;;;;5008448;28;20037;-80
2021/12/18 10:40:00;;;;;;;17.80;16.90;;;7.20;78.70;;;;;;5011296;28;20034;-81
2021/12/18 10:42:28;;;;;;;15.03;13.90;;;7.10;79.00;;;;;;4995388;28;20030;-80
2021/12/18 10:45:25;;;;;;;9.17;8.77;;;7.10;79.30;;;;;;5010119;28;20034;-78
2021/12/18 10:48:02;;;;;;;10.13;9.53;;;7.30;79.20;;;;;;5012347;28;20041;-80
2021/12/18 10:50:32;;;;;;;9.80;9.30;;;7.50;78.60;;;;;;5012438;28;20018;-79
2021/12/18 10:53:04;;;;;;;10.20;9.60;;;7.60;78.30;;;;;;5012431;28;20037;-81
2021/12/18 10:55:37;;;;;;;10.27;9.50;;;7.60;78.30;;;;;;5011674;28;20301;-80
2021/12/18 10:58:05;;;;;;;8.73;8.33;;;7.60;78.50;;;;;;5004308;28;20360;-81
2021/12/18 11:01:02;;;;;;;9.00;8.60;;;7.60;78.70;;;;;;5010393;28;20037;-79
2021/12/18 11:03:43;;;;;;;8.40;8.00;;;7.70;79.00;;;;;;5007012;28;20029;-79
2021/12/18 11:06:20;;;;;;;8.75;8.35;;;7.80;79.00;;;;;;5011013;28;20034;-81
2021/12/18 11:09:09;;;;;;;8.90;8.50;;;7.90;78.80;;;;;;5011355;28;20061;-81
2021/12/18 11:14:18;;;;;;;10.77;10.17;;;8.30;78.10;;;;;;5013398;28;20038;-79
2021/12/18 11:16:48;;;;;;;9.60;9.20;;;8.40;77.90;;;;;;4986068;28;20045;-80
2021/12/18 11:19:19;;;;;;;11.83;11.27;;;8.40;77.80;;;;;;4972431;28;20039;-80
2021/12/18 11:21:46;;;;;;;;;;;8.60;77.90;;;;;;4976261;28;20399;-81
2021/12/18 11:24:12;;;;;;;9.97;9.47;;;8.70;77.90;;;;;;4975497;28;19910;-81
2021/12/18 11:27:05;;;;;;;11.63;11.07;;;8.90;77.50;;;;;;4991113;28;20050;-80
2021/12/18 11:29:44;;;;;;;11.20;10.55;;;8.90;77.20;;;;;;4990756;28;20042;-79
2021/12/18 11:32:14;;;;;;;12.70;12.10;;;9.00;77.30;;;;;;5009869;28;20049;-78
2021/12/18 11:34:40;;;;;;;10.97;10.17;;;9.00;77.30;;;;;;5011049;28;20045;-81
2021/12/18 11:37:07;;;;;;;12.13;11.55;;;9.00;77.60;;;;;;5008256;28;21282;-81
2021/12/18 11:39:33;;;;;;;14.52;13.75;;;9.00;77.60;;;;;;4995045;28;20054;-80
2021/12/18 11:41:59;;;;;;;12.52;11.82;;;9.10;77.70;;;;;;5010425;28;20033;-83
2021/12/18 11:44:52;;;;;;;11.85;11.18;;;9.30;77.80;;;;;;4995011;28;20041;-80
2021/12/18 11:47:30;;;;;;;12.05;11.38;;;9.60;77.30;;;;;;5003347;28;20057;-80
2021/12/18 11:49:59;;;;;;;10.18;9.68;;;9.70;76.60;;;;;;4976352;28;20404;-80
2021/12/18 11:52:25;;;;;;;11.93;11.27;;;9.80;76.40;;;;;;5010758;28;20034;-82
2021/12/18 11:54:57;;;;;;;14.55;13.75;;;9.80;75.90;;;;;;4990941;28;20045;-80
2021/12/18 11:57:35;;;;;;;11.82;11.23;;;9.90;76.00;;;;;;4984388;28;20491;-79
2021/12/18 12:00:04;;;;;;;11.95;11.20;;;10.00;75.80;;;;;;4995104;28;20030;-78
2021/12/18 12:02:45;;;;;;;12.65;11.85;;;10.00;75.40;;;;;;5011616;28;20022;-79
2021/12/18 12:05:11;;;;;;;11.05;10.48;;;10.10;75.30;;;;;;4991265;28;20042;-78
2021/12/18 12:07:38;;;;;;;10.60;10.10;;;10.20;74.90;;;;;;5007692;28;20049;-78
2021/12/18 12:10:24;;;;;;;15.77;15.00;;;10.10;74.60;;;;;;5009341;28;20025;-78
2021/12/18 12:12:55;;;;;;;13.80;13.20;;;10.10;74.40;;;;;;5009966;28;20033;-78
2021/12/18 12:15:25;;;;;;;13.50;12.90;;;9.90;74.10;;;;;;5008918;28;20018;-78
2021/12/18 12:18:02;;;;;;;14.23;13.30;;;9.80;74.40;;;;;;4978626;28;20357;-78
2021/12/18 12:20:46;;;;;;;13.23;12.60;;;9.80;74.60;;;;;;5009821;28;20018;-78
2021/12/18 12:23:13;;;;;;;13.10;12.50;;;10.00;74.30;;;;;;5009618;28;20029;-78
2021/12/18 12:25:44;;;;;;;13.20;12.45;;;10.00;73.80;;;;;;5009668;28;20038;-78
2021/12/18 12:28:17;;;;;;;13.82;13.13;;;10.00;73.50;;;;;;5007404;28;20475;-79
2021/12/18 12:30:59;;;;;;;14.48;13.77;;;10.20;73.60;;;;;;4993363;28;20391;-78
2021/12/18 12:33:32;;;;;;;12.55;11.93;;;10.30;73.10;;;;;;5008671;28;20044;-78
2021/12/18 12:35:59;;;;;;;12.75;12.10;;;10.30;72.60;;;;;;5009378;28;20030;-86
2021/12/18 12:38:38;;;;;;;13.10;12.50;;;10.30;72.20;;;;;;5010185;28;20036;-85
2021/12/18 12:41:25;;;;;;;13.77;13.07;;;10.30;72.20;;;;;;5011987;28;20021;-80
2021/12/18 12:43:51;;;;;;;14.70;13.57;;;10.30;72.20;;;;;;5009522;28;20037;-80
2021/12/18 12:46:18;;;;;;;11.60;11.10;;;10.20;71.80;;;;;;5008199;28;20053;-80
2021/12/18 12:48:56;;;;;;;13.73;12.95;;;10.00;71.90;;;;;;5009769;28;20037;-80
2021/12/18 12:51:22;;;;;;;13.07;11.82;;;10.10;72.00;;;;;;5008993;28;20026;-80
2021/12/18 12:53:52;;;;;;;12.63;11.93;;;10.10;71.90;;;;;;5010201;28;20051;-80
2021/12/18 12:56:20;;;;;;;13.90;13.20;;;10.20;71.60;;;;;;4994700;28;20022;-80
2021/12/18 12:58:47;;;;;;;13.52;12.93;;;10.20;71.40;;;;;;4976683;28;20405;-80
2021/12/18 13:01:13;;;;;;;14.32;13.40;;;10.20;71.30;;;;;;5008690;28;20045;-78
2021/12/18 13:03:47;;;;;;;14.35;13.63;;;10.20;71.10;;;;;;4992095;28;20026;-79
2021/12/18 13:06:19;;;;;;;15.15;14.27;;;10.20;71.10;;;;;;5007548;28;20395;-79
2021/12/18 13:08:46;;;;;;;15.20;14.40;;;10.20;71.10;;;;;;4992694;28;20045;-79
2021/12/18 13:11:19;;;;;;;14.48;13.68;;;10.30;71.10;;;;;;4991484;28;20368;-79
2021/12/18 13:13:45;;;;;;;15.07;14.27;;;10.40;71.10;;;;;;5008862;28;20045;-79
2021/12/18 13:16:16;;;;;;;13.80;13.20;;;10.50;70.80;;;;;;5008291;28;20060;-79
2021/12/18 13:18:45;;;;;;;13.73;13.13;;;10.50;70.70;;;;;;5009172;28;20018;-79
2021/12/18 13:21:19;;;;;;;14.48;13.68;;;10.60;70.80;;;;;;5007581;28;20045;-79
2021/12/18 13:24:13;;;;;;;14.68;13.98;;;10.70;70.70;;;;;;5008978;28;20014;-79
2021/12/18 13:26:42;;;;;;;13.88;13.20;;;10.60;70.50;;;;;;5007341;28;20053;-79
2021/12/18 13:29:18;;;;;;;13.50;12.90;;;10.70;70.30;;;;;;5011384;28;20053;-79
2021/12/18 13:31:52;;;;;;;13.68;13.07;;;10.60;70.40;;;;;;5008872;28;20060;-79
2021/12/18 13:34:20;;;;;;;13.20;12.50;;;10.60;70.50;;;;;;5009309;28;20041;-79
2021/12/18 13:36:54;;;;;;;13.85;13.15;;;10.60;70.40;;;;;;5008236;28;20030;-79